sensor_id;sensor_type;location;lat;lon;timestamp;temperature;humidity
23377;DHT22;14353;46.070;13.222;2023-08-31T00:02:15;27.20;51.00
23377;DHT22;14353;46.070;13.222;2023-08-31T00:04:40;27.20;50.90
23377;DHT22;14353;46.070;13.222;2023-08-31T00:07:06;27.20;51.00
23377;DHT22;14353;46.070;13.222;2023-08-31T00:09:32;27.20;51.00
23377;DHT22;14353;46.070;13.222;2023-08-31T00:11:58;27.20;50.90
23377;DHT22;14353;46.070;13.222;2023-08-31T00:14:24;27.10;50.90
23377;DHT22;14353;46.070;13.222;2023-08-31T00:16:51;27.10;50.90
23377;DHT22;14353;46.070;13.222;2023-08-31T00:19:17;27.10;50.90
23377;DHT22;14353;46.070;13.222;2023-08-31T00:21:42;27.10;50.90
23377;DHT22;14353;46.070;13.222;2023-08-31T00:24:08;27.10;50.90
23377;DHT22;14353;46.070;13.222;2023-08-31T00:26:36;27.10;50.90
23377;DHT22;14353;46.070;13.222;2023-08-31T00:29:10;27.10;50.90
23377;DHT22;14353;46.070;13.222;2023-08-31T00:31:37;27.10;50.90
23377;DHT22;14353;46.070;13.222;2023-08-31T00:34:03;27.10;50.90
23377;DHT22;14353;46.070;13.222;2023-08-31T00:36:32;27.10;50.90
23377;DHT22;14353;46.070;13.222;2023-08-31T00:39:07;27.10;50.90
23377;DHT22;14353;46.070;13.222;2023-08-31T00:41:36;27.10;50.90
23377;DHT22;14353;46.070;13.222;2023-08-31T00:44:02;27.10;50.80
23377;DHT22;14353;46.070;13.222;2023-08-31T00:46:30;27.10;50.80
23377;DHT22;14353;46.070;13.222;2023-08-31T00:48:57;27.10;50.80
23377;DHT22;14353;46.070;13.222;2023-08-31T00:51:24;27.10;50.70
23377;DHT22;14353;46.070;13.222;2023-08-31T00:53:51;27.10;50.70
23377;DHT22;14353;46.070;13.222;2023-08-31T00:56:20;27.10;50.70
23377;DHT22;14353;46.070;13.222;2023-08-31T00:58:46;27.10;50.70
23377;DHT22;14353;46.070;13.222;2023-08-31T01:01:39;27.10;50.70
23377;DHT22;14353;46.070;13.222;2023-08-31T01:07:13;27.10;50.60
23377;DHT22;14353;46.070;13.222;2023-08-31T01:09:51;27.00;50.60
23377;DHT22;14353;46.070;13.222;2023-08-31T01:12:22;27.00;50.60
23377;DHT22;14353;46.070;13.222;2023-08-31T01:15:05;27.00;50.50
23377;DHT22;14353;46.070;13.222;2023-08-31T01:17:41;27.00;50.50
23377;DHT22;14353;46.070;13.222;2023-08-31T01:20:09;27.10;50.50
23377;DHT22;14353;46.070;13.222;2023-08-31T01:22:43;27.00;50.50
23377;DHT22;14353;46.070;13.222;2023-08-31T01:25:13;27.00;50.50
23377;DHT22;14353;46.070;13.222;2023-08-31T01:27:39;27.00;50.40
23377;DHT22;14353;46.070;13.222;2023-08-31T01:30:06;27.00;50.40
23377;DHT22;14353;46.070;13.222;2023-08-31T01:32:33;27.00;50.40
23377;DHT22;14353;46.070;13.222;2023-08-31T01:35:01;27.00;50.40
23377;DHT22;14353;46.070;13.222;2023-08-31T01:37:34;27.00;50.40
23377;DHT22;14353;46.070;13.222;2023-08-31T01:40:12;27.00;50.30
23377;DHT22;14353;46.070;13.222;2023-08-31T01:42:42;27.00;50.30
23377;DHT22;14353;46.070;13.222;2023-08-31T01:45:11;27.00;50.30
23377;DHT22;14353;46.070;13.222;2023-08-31T01:47:38;27.00;50.30
23377;DHT22;14353;46.070;13.222;2023-08-31T01:50:04;27.00;50.30
23377;DHT22;14353;46.070;13.222;2023-08-31T01:52:30;27.00;50.30
23377;DHT22;14353;46.070;13.222;2023-08-31T01:54:56;27.00;50.20
23377;DHT22;14353;46.070;13.222;2023-08-31T01:57:22;27.00;50.20
23377;DHT22;14353;46.070;13.222;2023-08-31T01:59:47;27.00;50.20
23377;DHT22;14353;46.070;13.222;2023-08-31T02:02:13;27.00;50.20
23377;DHT22;14353;46.070;13.222;2023-08-31T02:04:43;26.90;50.10
23377;DHT22;14353;46.070;13.222;2023-08-31T02:07:09;26.90;50.10
23377;DHT22;14353;46.070;13.222;2023-08-31T02:09:34;27.00;50.10
23377;DHT22;14353;46.070;13.222;2023-08-31T02:12:00;26.90;50.10
23377;DHT22;14353;46.070;13.222;2023-08-31T02:14:26;27.00;50.10
23377;DHT22;14353;46.070;13.222;2023-08-31T02:16:52;26.90;50.00
23377;DHT22;14353;46.070;13.222;2023-08-31T02:19:17;27.00;50.10
23377;DHT22;14353;46.070;13.222;2023-08-31T02:21:43;26.90;50.00
23377;DHT22;14353;46.070;13.222;2023-08-31T02:24:09;26.90;50.00
23377;DHT22;14353;46.070;13.222;2023-08-31T02:26:37;26.90;49.90
23377;DHT22;14353;46.070;13.222;2023-08-31T02:29:03;26.90;50.60
23377;DHT22;14353;46.070;13.222;2023-08-31T02:31:29;27.00;50.00
23377;DHT22;14353;46.070;13.222;2023-08-31T02:33:54;26.90;49.90
23377;DHT22;14353;46.070;13.222;2023-08-31T02:36:20;26.90;49.90
23377;DHT22;14353;46.070;13.222;2023-08-31T02:38:46;26.90;49.90
23377;DHT22;14353;46.070;13.222;2023-08-31T02:41:12;26.90;49.80
23377;DHT22;14353;46.070;13.222;2023-08-31T02:43:38;26.90;49.80
23377;DHT22;14353;46.070;13.222;2023-08-31T02:46:04;26.90;49.80
23377;DHT22;14353;46.070;13.222;2023-08-31T02:48:32;26.90;49.80
23377;DHT22;14353;46.070;13.222;2023-08-31T02:50:58;26.90;49.80
23377;DHT22;14353;46.070;13.222;2023-08-31T02:53:29;26.90;49.80
23377;DHT22;14353;46.070;13.222;2023-08-31T02:55:55;26.90;49.80
23377;DHT22;14353;46.070;13.222;2023-08-31T02:58:21;26.90;49.80
23377;DHT22;14353;46.070;13.222;2023-08-31T03:00:46;26.90;49.80
23377;DHT22;14353;46.070;13.222;2023-08-31T03:03:16;26.90;49.80
23377;DHT22;14353;46.070;13.222;2023-08-31T03:05:43;26.90;49.80
23377;DHT22;14353;46.070;13.222;2023-08-31T03:08:09;26.90;49.80
23377;DHT22;14353;46.070;13.222;2023-08-31T03:10:36;26.90;49.80
23377;DHT22;14353;46.070;13.222;2023-08-31T03:13:02;26.90;49.70
23377;DHT22;14353;46.070;13.222;2023-08-31T03:15:28;26.90;49.70
23377;DHT22;14353;46.070;13.222;2023-08-31T03:17:53;26.90;49.70
23377;DHT22;14353;46.070;13.222;2023-08-31T03:20:20;26.90;49.70
23377;DHT22;14353;46.070;13.222;2023-08-31T03:22:45;26.90;49.70
23377;DHT22;14353;46.070;13.222;2023-08-31T03:25:11;26.90;49.70
23377;DHT22;14353;46.070;13.222;2023-08-31T03:27:37;26.90;49.70
23377;DHT22;14353;46.070;13.222;2023-08-31T03:30:03;26.90;49.70
23377;DHT22;14353;46.070;13.222;2023-08-31T03:32:29;26.80;49.60
23377;DHT22;14353;46.070;13.222;2023-08-31T03:34:55;26.80;49.60
23377;DHT22;14353;46.070;13.222;2023-08-31T03:37:20;26.90;49.70
23377;DHT22;14353;46.070;13.222;2023-08-31T03:39:50;26.90;49.70
23377;DHT22;14353;46.070;13.222;2023-08-31T03:42:16;26.80;49.60
23377;DHT22;14353;46.070;13.222;2023-08-31T03:44:42;26.80;49.60
23377;DHT22;14353;46.070;13.222;2023-08-31T03:47:07;26.80;49.60
23377;DHT22;14353;46.070;13.222;2023-08-31T03:49:33;26.80;49.60
23377;DHT22;14353;46.070;13.222;2023-08-31T03:52:00;26.80;50.30
23377;DHT22;14353;46.070;13.222;2023-08-31T03:54:26;26.80;49.60
23377;DHT22;14353;46.070;13.222;2023-08-31T03:56:52;26.80;49.60
23377;DHT22;14353;46.070;13.222;2023-08-31T03:59:17;26.80;49.60
23377;DHT22;14353;46.070;13.222;2023-08-31T04:01:43;26.80;49.60
23377;DHT22;14353;46.070;13.222;2023-08-31T04:04:09;26.80;49.60
23377;DHT22;14353;46.070;13.222;2023-08-31T04:06:35;26.80;49.60
23377;DHT22;14353;46.070;13.222;2023-08-31T04:09:01;26.80;49.60
23377;DHT22;14353;46.070;13.222;2023-08-31T04:11:26;26.80;49.60
23377;DHT22;14353;46.070;13.222;2023-08-31T04:13:52;26.80;49.60
23377;DHT22;14353;46.070;13.222;2023-08-31T04:16:18;26.80;49.60
23377;DHT22;14353;46.070;13.222;2023-08-31T04:18:44;26.80;49.60
23377;DHT22;14353;46.070;13.222;2023-08-31T04:21:17;26.80;49.60
23377;DHT22;14353;46.070;13.222;2023-08-31T04:23:43;26.80;49.60
23377;DHT22;14353;46.070;13.222;2023-08-31T04:26:13;26.80;49.60
23377;DHT22;14353;46.070;13.222;2023-08-31T04:28:42;26.80;49.60
23377;DHT22;14353;46.070;13.222;2023-08-31T04:31:08;26.80;49.60
23377;DHT22;14353;46.070;13.222;2023-08-31T04:33:37;26.80;49.60
23377;DHT22;14353;46.070;13.222;2023-08-31T04:36:06;26.80;49.60
23377;DHT22;14353;46.070;13.222;2023-08-31T04:38:32;26.80;49.60
23377;DHT22;14353;46.070;13.222;2023-08-31T04:40:58;26.80;49.60
23377;DHT22;14353;46.070;13.222;2023-08-31T04:43:25;26.80;49.60
23377;DHT22;14353;46.070;13.222;2023-08-31T04:45:52;26.80;49.60
23377;DHT22;14353;46.070;13.222;2023-08-31T04:48:18;26.80;49.60
23377;DHT22;14353;46.070;13.222;2023-08-31T04:50:43;26.80;49.60
23377;DHT22;14353;46.070;13.222;2023-08-31T04:53:09;26.80;49.60
23377;DHT22;14353;46.070;13.222;2023-08-31T04:55:35;26.80;49.60
23377;DHT22;14353;46.070;13.222;2023-08-31T04:58:00;26.80;49.60
23377;DHT22;14353;46.070;13.222;2023-08-31T05:00:26;26.80;49.60
23377;DHT22;14353;46.070;13.222;2023-08-31T05:02:52;26.80;49.60
23377;DHT22;14353;46.070;13.222;2023-08-31T05:05:17;26.80;49.60
23377;DHT22;14353;46.070;13.222;2023-08-31T05:07:46;26.80;49.60
23377;DHT22;14353;46.070;13.222;2023-08-31T05:10:11;26.80;49.60
23377;DHT22;14353;46.070;13.222;2023-08-31T05:12:37;26.80;49.60
23377;DHT22;14353;46.070;13.222;2023-08-31T05:15:03;26.80;49.60
23377;DHT22;14353;46.070;13.222;2023-08-31T05:17:29;26.80;49.50
23377;DHT22;14353;46.070;13.222;2023-08-31T05:19:56;26.80;49.50
23377;DHT22;14353;46.070;13.222;2023-08-31T05:22:22;26.80;49.50
23377;DHT22;14353;46.070;13.222;2023-08-31T05:24:48;26.80;49.50
23377;DHT22;14353;46.070;13.222;2023-08-31T05:27:14;26.80;49.50
23377;DHT22;14353;46.070;13.222;2023-08-31T05:29:40;26.80;49.50
23377;DHT22;14353;46.070;13.222;2023-08-31T05:32:06;26.80;49.50
23377;DHT22;14353;46.070;13.222;2023-08-31T05:34:31;26.80;49.40
23377;DHT22;14353;46.070;13.222;2023-08-31T05:37:00;26.80;49.40
23377;DHT22;14353;46.070;13.222;2023-08-31T05:39:26;26.80;49.40
23377;DHT22;14353;46.070;13.222;2023-08-31T05:41:51;26.80;49.40
23377;DHT22;14353;46.070;13.222;2023-08-31T05:44:17;26.80;49.40
23377;DHT22;14353;46.070;13.222;2023-08-31T05:46:43;26.80;49.30
23377;DHT22;14353;46.070;13.222;2023-08-31T05:49:08;26.80;49.30
23377;DHT22;14353;46.070;13.222;2023-08-31T05:51:35;26.80;49.30
23377;DHT22;14353;46.070;13.222;2023-08-31T05:54:00;26.80;49.30
23377;DHT22;14353;46.070;13.222;2023-08-31T05:56:26;26.80;49.30
23377;DHT22;14353;46.070;13.222;2023-08-31T05:58:52;26.80;49.30
23377;DHT22;14353;46.070;13.222;2023-08-31T06:01:20;26.80;49.30
23377;DHT22;14353;46.070;13.222;2023-08-31T06:03:47;26.80;49.30
23377;DHT22;14353;46.070;13.222;2023-08-31T06:06:14;26.80;49.20
23377;DHT22;14353;46.070;13.222;2023-08-31T06:08:40;26.80;49.20
23377;DHT22;14353;46.070;13.222;2023-08-31T06:11:08;26.80;49.30
23377;DHT22;14353;46.070;13.222;2023-08-31T06:13:33;26.80;49.20
23377;DHT22;14353;46.070;13.222;2023-08-31T06:15:59;26.80;49.20
23377;DHT22;14353;46.070;13.222;2023-08-31T06:18:25;26.80;49.20
23377;DHT22;14353;46.070;13.222;2023-08-31T06:20:51;26.80;49.20
23377;DHT22;14353;46.070;13.222;2023-08-31T06:23:17;26.80;49.20
23377;DHT22;14353;46.070;13.222;2023-08-31T06:25:43;26.80;49.20
23377;DHT22;14353;46.070;13.222;2023-08-31T06:28:11;26.80;49.20
23377;DHT22;14353;46.070;13.222;2023-08-31T06:30:37;26.80;49.20
23377;DHT22;14353;46.070;13.222;2023-08-31T06:33:04;26.90;49.30
23377;DHT22;14353;46.070;13.222;2023-08-31T06:35:30;26.90;49.30
23377;DHT22;14353;46.070;13.222;2023-08-31T06:37:58;26.90;49.30
23377;DHT22;14353;46.070;13.222;2023-08-31T06:40:24;26.90;49.20
23377;DHT22;14353;46.070;13.222;2023-08-31T06:42:50;26.90;49.30
23377;DHT22;14353;46.070;13.222;2023-08-31T06:45:16;26.90;49.30
23377;DHT22;14353;46.070;13.222;2023-08-31T06:47:41;26.90;49.30
23377;DHT22;14353;46.070;13.222;2023-08-31T06:50:07;26.90;49.30
23377;DHT22;14353;46.070;13.222;2023-08-31T06:52:33;26.90;49.30
23377;DHT22;14353;46.070;13.222;2023-08-31T06:54:59;26.90;49.30
23377;DHT22;14353;46.070;13.222;2023-08-31T06:57:26;26.90;49.30
23377;DHT22;14353;46.070;13.222;2023-08-31T06:59:52;26.90;49.30
23377;DHT22;14353;46.070;13.222;2023-08-31T07:02:19;26.90;49.30
23377;DHT22;14353;46.070;13.222;2023-08-31T07:04:45;26.90;49.30
23377;DHT22;14353;46.070;13.222;2023-08-31T07:07:12;26.90;49.60
23377;DHT22;14353;46.070;13.222;2023-08-31T07:09:42;26.90;49.30
23377;DHT22;14353;46.070;13.222;2023-08-31T07:12:09;26.90;49.30
23377;DHT22;14353;46.070;13.222;2023-08-31T07:14:35;26.90;49.30
23377;DHT22;14353;46.070;13.222;2023-08-31T07:17:00;26.90;49.30
23377;DHT22;14353;46.070;13.222;2023-08-31T07:19:29;26.90;49.30
23377;DHT22;14353;46.070;13.222;2023-08-31T07:21:55;27.00;49.30
23377;DHT22;14353;46.070;13.222;2023-08-31T07:24:22;27.00;49.30
23377;DHT22;14353;46.070;13.222;2023-08-31T07:26:47;27.00;49.20
23377;DHT22;14353;46.070;13.222;2023-08-31T07:29:14;27.00;49.20
23377;DHT22;14353;46.070;13.222;2023-08-31T07:31:40;27.00;49.10
23377;DHT22;14353;46.070;13.222;2023-08-31T07:34:05;27.00;49.10
23377;DHT22;14353;46.070;13.222;2023-08-31T07:36:31;27.00;49.00
23377;DHT22;14353;46.070;13.222;2023-08-31T07:38:57;27.00;49.00
23377;DHT22;14353;46.070;13.222;2023-08-31T07:41:23;27.10;49.00
23377;DHT22;14353;46.070;13.222;2023-08-31T07:43:49;27.00;48.80
23377;DHT22;14353;46.070;13.222;2023-08-31T07:46:15;27.10;48.90
23377;DHT22;14353;46.070;13.222;2023-08-31T07:48:42;27.10;48.80
23377;DHT22;14353;46.070;13.222;2023-08-31T07:51:07;27.10;48.70
23377;DHT22;14353;46.070;13.222;2023-08-31T07:53:33;27.10;48.60
23377;DHT22;14353;46.070;13.222;2023-08-31T07:55:59;27.10;48.40
23377;DHT22;14353;46.070;13.222;2023-08-31T07:58:25;27.10;48.30
23377;DHT22;14353;46.070;13.222;2023-08-31T08:00:55;27.20;48.20
23377;DHT22;14353;46.070;13.222;2023-08-31T08:03:22;27.20;48.10
23377;DHT22;14353;46.070;13.222;2023-08-31T08:05:48;27.20;48.00
23377;DHT22;14353;46.070;13.222;2023-08-31T08:08:14;27.20;47.60
23377;DHT22;14353;46.070;13.222;2023-08-31T08:10:40;27.20;47.60
23377;DHT22;14353;46.070;13.222;2023-08-31T08:13:06;27.20;47.10
23377;DHT22;14353;46.070;13.222;2023-08-31T08:15:31;27.30;47.20
23377;DHT22;14353;46.070;13.222;2023-08-31T08:17:58;27.30;47.20
23377;DHT22;14353;46.070;13.222;2023-08-31T08:20:24;27.30;47.10
23377;DHT22;14353;46.070;13.222;2023-08-31T08:22:50;27.30;47.50
23377;DHT22;14353;46.070;13.222;2023-08-31T08:25:22;27.30;46.40
23377;DHT22;14353;46.070;13.222;2023-08-31T08:27:48;27.30;46.20
23377;DHT22;14353;46.070;13.222;2023-08-31T08:30:14;27.30;46.90
23377;DHT22;14353;46.070;13.222;2023-08-31T08:32:41;27.40;46.40
23377;DHT22;14353;46.070;13.222;2023-08-31T08:35:07;27.40;46.20
23377;DHT22;14353;46.070;13.222;2023-08-31T08:37:33;27.40;46.10
23377;DHT22;14353;46.070;13.222;2023-08-31T08:39:59;27.40;45.70
23377;DHT22;14353;46.070;13.222;2023-08-31T08:42:25;27.40;45.80
23377;DHT22;14353;46.070;13.222;2023-08-31T08:44:52;27.40;45.90
23377;DHT22;14353;46.070;13.222;2023-08-31T08:47:18;27.40;45.60
23377;DHT22;14353;46.070;13.222;2023-08-31T08:49:44;27.40;45.70
23377;DHT22;14353;46.070;13.222;2023-08-31T08:52:10;27.40;45.80
23377;DHT22;14353;46.070;13.222;2023-08-31T08:54:37;27.40;45.80
23377;DHT22;14353;46.070;13.222;2023-08-31T08:57:04;27.40;45.80
23377;DHT22;14353;46.070;13.222;2023-08-31T08:59:32;27.40;45.80
23377;DHT22;14353;46.070;13.222;2023-08-31T09:01:59;27.40;45.80
23377;DHT22;14353;46.070;13.222;2023-08-31T09:04:25;27.40;45.90
23377;DHT22;14353;46.070;13.222;2023-08-31T09:06:51;27.40;45.70
23377;DHT22;14353;46.070;13.222;2023-08-31T09:09:16;27.40;45.80
23377;DHT22;14353;46.070;13.222;2023-08-31T09:11:43;27.40;45.80
23377;DHT22;14353;46.070;13.222;2023-08-31T09:14:18;27.40;45.70
23377;DHT22;14353;46.070;13.222;2023-08-31T09:16:48;27.40;45.70
23377;DHT22;14353;46.070;13.222;2023-08-31T09:19:21;27.40;45.70
23377;DHT22;14353;46.070;13.222;2023-08-31T09:21:51;27.50;45.70
23377;DHT22;14353;46.070;13.222;2023-08-31T09:24:18;27.50;45.80
23377;DHT22;14353;46.070;13.222;2023-08-31T09:26:57;27.50;45.70
23377;DHT22;14353;46.070;13.222;2023-08-31T09:29:23;27.50;45.60
23377;DHT22;14353;46.070;13.222;2023-08-31T09:31:49;27.50;45.60
23377;DHT22;14353;46.070;13.222;2023-08-31T09:34:16;27.50;45.60
23377;DHT22;14353;46.070;13.222;2023-08-31T09:36:42;27.50;45.60
23377;DHT22;14353;46.070;13.222;2023-08-31T09:39:08;27.50;45.60
23377;DHT22;14353;46.070;13.222;2023-08-31T09:41:54;27.50;45.50
23377;DHT22;14353;46.070;13.222;2023-08-31T09:44:21;27.50;45.50
23377;DHT22;14353;46.070;13.222;2023-08-31T09:46:47;27.50;45.50
23377;DHT22;14353;46.070;13.222;2023-08-31T09:49:14;27.50;45.40
23377;DHT22;14353;46.070;13.222;2023-08-31T09:51:46;27.50;45.50
23377;DHT22;14353;46.070;13.222;2023-08-31T09:54:14;27.50;45.50
23377;DHT22;14353;46.070;13.222;2023-08-31T09:56:42;27.50;45.50
23377;DHT22;14353;46.070;13.222;2023-08-31T09:59:09;27.50;45.50
23377;DHT22;14353;46.070;13.222;2023-08-31T10:01:35;27.50;45.60
23377;DHT22;14353;46.070;13.222;2023-08-31T10:04:02;27.50;45.50
23377;DHT22;14353;46.070;13.222;2023-08-31T10:06:29;27.50;45.50
23377;DHT22;14353;46.070;13.222;2023-08-31T10:08:56;27.50;45.50
23377;DHT22;14353;46.070;13.222;2023-08-31T10:11:26;27.50;45.50
23377;DHT22;14353;46.070;13.222;2023-08-31T10:13:53;27.50;45.50
23377;DHT22;14353;46.070;13.222;2023-08-31T10:16:21;27.50;45.50
23377;DHT22;14353;46.070;13.222;2023-08-31T10:18:47;27.60;45.60
23377;DHT22;14353;46.070;13.222;2023-08-31T10:21:16;27.60;45.60
23377;DHT22;14353;46.070;13.222;2023-08-31T10:23:49;27.60;45.60
23377;DHT22;14353;46.070;13.222;2023-08-31T10:28:53;27.60;45.60
23377;DHT22;14353;46.070;13.222;2023-08-31T10:31:20;27.60;45.70
23377;DHT22;14353;46.070;13.222;2023-08-31T10:36:41;27.60;45.60
23377;DHT22;14353;46.070;13.222;2023-08-31T10:39:16;27.60;45.60
23377;DHT22;14353;46.070;13.222;2023-08-31T10:41:52;27.60;45.60
23377;DHT22;14353;46.070;13.222;2023-08-31T10:44:25;27.60;45.70
23377;DHT22;14353;46.070;13.222;2023-08-31T10:46:52;27.60;45.80
23377;DHT22;14353;46.070;13.222;2023-08-31T10:49:21;27.60;45.80
23377;DHT22;14353;46.070;13.222;2023-08-31T10:51:49;27.60;45.90
23377;DHT22;14353;46.070;13.222;2023-08-31T10:54:30;27.60;45.90
23377;DHT22;14353;46.070;13.222;2023-08-31T11:00:01;27.70;46.00
23377;DHT22;14353;46.070;13.222;2023-08-31T11:02:29;27.70;46.00
23377;DHT22;14353;46.070;13.222;2023-08-31T11:04:58;27.70;46.00
23377;DHT22;14353;46.070;13.222;2023-08-31T11:07:26;27.70;45.90
23377;DHT22;14353;46.070;13.222;2023-08-31T11:09:52;27.70;46.00
23377;DHT22;14353;46.070;13.222;2023-08-31T11:12:32;27.80;46.00
23377;DHT22;14353;46.070;13.222;2023-08-31T11:14:57;27.80;46.00
23377;DHT22;14353;46.070;13.222;2023-08-31T11:17:24;27.90;46.10
23377;DHT22;14353;46.070;13.222;2023-08-31T11:19:50;27.90;46.10
23377;DHT22;14353;46.070;13.222;2023-08-31T11:22:16;27.90;46.10
23377;DHT22;14353;46.070;13.222;2023-08-31T11:24:41;27.90;46.20
23377;DHT22;14353;46.070;13.222;2023-08-31T11:27:08;27.90;46.20
23377;DHT22;14353;46.070;13.222;2023-08-31T11:29:42;27.90;46.20
23377;DHT22;14353;46.070;13.222;2023-08-31T11:32:08;27.90;46.20
23377;DHT22;14353;46.070;13.222;2023-08-31T11:34:34;28.00;46.20
23377;DHT22;14353;46.070;13.222;2023-08-31T11:37:02;28.00;46.10
23377;DHT22;14353;46.070;13.222;2023-08-31T11:39:28;28.00;46.10
23377;DHT22;14353;46.070;13.222;2023-08-31T11:41:54;28.00;46.10
23377;DHT22;14353;46.070;13.222;2023-08-31T11:44:20;28.00;46.10
23377;DHT22;14353;46.070;13.222;2023-08-31T11:46:47;28.00;46.20
23377;DHT22;14353;46.070;13.222;2023-08-31T11:49:17;28.00;46.10
23377;DHT22;14353;46.070;13.222;2023-08-31T11:51:43;28.00;46.20
23377;DHT22;14353;46.070;13.222;2023-08-31T11:54:10;28.00;46.20
23377;DHT22;14353;46.070;13.222;2023-08-31T11:56:43;28.00;46.20
23377;DHT22;14353;46.070;13.222;2023-08-31T11:59:10;28.10;46.20
23377;DHT22;14353;46.070;13.222;2023-08-31T12:01:40;28.00;46.20
23377;DHT22;14353;46.070;13.222;2023-08-31T12:04:20;28.10;46.20
23377;DHT22;14353;46.070;13.222;2023-08-31T12:06:51;28.10;46.20
23377;DHT22;14353;46.070;13.222;2023-08-31T12:09:17;28.10;46.10
23377;DHT22;14353;46.070;13.222;2023-08-31T12:11:50;28.10;46.10
23377;DHT22;14353;46.070;13.222;2023-08-31T12:14:20;28.20;46.20
23377;DHT22;14353;46.070;13.222;2023-08-31T12:16:46;28.20;46.10
23377;DHT22;14353;46.070;13.222;2023-08-31T12:19:12;28.20;46.10
23377;DHT22;14353;46.070;13.222;2023-08-31T12:21:38;28.20;46.10
23377;DHT22;14353;46.070;13.222;2023-08-31T12:24:05;28.20;46.00
23377;DHT22;14353;46.070;13.222;2023-08-31T12:26:31;28.20;46.00
23377;DHT22;14353;46.070;13.222;2023-08-31T12:28:57;28.30;46.00
23377;DHT22;14353;46.070;13.222;2023-08-31T12:31:24;28.30;46.00
23377;DHT22;14353;46.070;13.222;2023-08-31T12:33:49;28.30;46.00
23377;DHT22;14353;46.070;13.222;2023-08-31T12:36:15;28.30;46.10
23377;DHT22;14353;46.070;13.222;2023-08-31T12:38:41;28.30;46.10
23377;DHT22;14353;46.070;13.222;2023-08-31T12:41:07;28.30;46.20
23377;DHT22;14353;46.070;13.222;2023-08-31T12:43:33;28.30;46.20
23377;DHT22;14353;46.070;13.222;2023-08-31T12:45:59;28.30;46.20
23377;DHT22;14353;46.070;13.222;2023-08-31T12:48:26;28.30;46.20
23377;DHT22;14353;46.070;13.222;2023-08-31T12:50:52;28.30;46.30
23377;DHT22;14353;46.070;13.222;2023-08-31T12:53:21;28.20;46.30
23377;DHT22;14353;46.070;13.222;2023-08-31T12:55:48;28.20;46.40
23377;DHT22;14353;46.070;13.222;2023-08-31T12:58:15;28.30;46.60
23377;DHT22;14353;46.070;13.222;2023-08-31T13:00:41;28.20;46.60
23377;DHT22;14353;46.070;13.222;2023-08-31T13:03:09;28.20;46.70
23377;DHT22;14353;46.070;13.222;2023-08-31T13:05:38;28.20;46.80
23377;DHT22;14353;46.070;13.222;2023-08-31T13:08:04;28.20;46.90
23377;DHT22;14353;46.070;13.222;2023-08-31T13:10:30;28.20;46.80
23377;DHT22;14353;46.070;13.222;2023-08-31T13:12:56;28.10;46.90
23377;DHT22;14353;46.070;13.222;2023-08-31T13:15:22;28.10;46.90
23377;DHT22;14353;46.070;13.222;2023-08-31T13:17:48;28.10;47.00
23377;DHT22;14353;46.070;13.222;2023-08-31T13:20:13;28.10;47.00
23377;DHT22;14353;46.070;13.222;2023-08-31T13:22:39;28.10;47.00
23377;DHT22;14353;46.070;13.222;2023-08-31T13:25:05;28.10;47.00
23377;DHT22;14353;46.070;13.222;2023-08-31T13:27:31;28.10;47.00
23377;DHT22;14353;46.070;13.222;2023-08-31T13:29:59;28.10;47.00
23377;DHT22;14353;46.070;13.222;2023-08-31T13:32:24;28.10;47.00
23377;DHT22;14353;46.070;13.222;2023-08-31T13:34:51;28.10;47.10
23377;DHT22;14353;46.070;13.222;2023-08-31T13:37:17;28.10;47.00
23377;DHT22;14353;46.070;13.222;2023-08-31T13:39:43;28.10;47.00
23377;DHT22;14353;46.070;13.222;2023-08-31T13:42:08;28.10;47.10
23377;DHT22;14353;46.070;13.222;2023-08-31T13:44:34;28.10;47.10
23377;DHT22;14353;46.070;13.222;2023-08-31T13:47:01;28.10;47.00
23377;DHT22;14353;46.070;13.222;2023-08-31T13:49:29;28.10;47.10
23377;DHT22;14353;46.070;13.222;2023-08-31T13:51:54;28.10;47.20
23377;DHT22;14353;46.070;13.222;2023-08-31T13:54:20;28.10;47.30
23377;DHT22;14353;46.070;13.222;2023-08-31T13:56:46;28.10;47.40
23377;DHT22;14353;46.070;13.222;2023-08-31T13:59:11;28.10;47.40
23377;DHT22;14353;46.070;13.222;2023-08-31T14:01:37;28.00;47.40
23377;DHT22;14353;46.070;13.222;2023-08-31T14:04:03;28.00;47.50
23377;DHT22;14353;46.070;13.222;2023-08-31T14:06:29;28.10;47.50
23377;DHT22;14353;46.070;13.222;2023-08-31T14:08:55;28.00;47.50
23377;DHT22;14353;46.070;13.222;2023-08-31T14:11:21;28.00;47.60
23377;DHT22;14353;46.070;13.222;2023-08-31T14:13:47;28.00;47.60
23377;DHT22;14353;46.070;13.222;2023-08-31T14:16:12;27.90;47.60
23377;DHT22;14353;46.070;13.222;2023-08-31T14:18:38;27.90;47.60
23377;DHT22;14353;46.070;13.222;2023-08-31T14:21:04;27.90;47.70
23377;DHT22;14353;46.070;13.222;2023-08-31T14:23:30;27.90;47.70
23377;DHT22;14353;46.070;13.222;2023-08-31T14:26:03;27.90;47.70
23377;DHT22;14353;46.070;13.222;2023-08-31T14:28:29;27.90;47.70
23377;DHT22;14353;46.070;13.222;2023-08-31T14:30:55;27.90;47.70
23377;DHT22;14353;46.070;13.222;2023-08-31T14:33:21;27.90;47.80
23377;DHT22;14353;46.070;13.222;2023-08-31T14:35:50;27.90;47.70
23377;DHT22;14353;46.070;13.222;2023-08-31T14:38:20;27.90;47.70
23377;DHT22;14353;46.070;13.222;2023-08-31T14:40:47;27.90;47.80
23377;DHT22;14353;46.070;13.222;2023-08-31T14:43:13;27.90;47.80
23377;DHT22;14353;46.070;13.222;2023-08-31T14:45:38;27.90;47.80
23377;DHT22;14353;46.070;13.222;2023-08-31T14:48:04;27.90;47.80
23377;DHT22;14353;46.070;13.222;2023-08-31T14:50:30;27.90;47.90
23377;DHT22;14353;46.070;13.222;2023-08-31T14:52:56;27.80;47.90
23377;DHT22;14353;46.070;13.222;2023-08-31T14:55:21;27.80;47.90
23377;DHT22;14353;46.070;13.222;2023-08-31T14:57:47;27.80;47.90
23377;DHT22;14353;46.070;13.222;2023-08-31T15:00:13;27.80;47.90
23377;DHT22;14353;46.070;13.222;2023-08-31T15:02:39;27.80;47.90
23377;DHT22;14353;46.070;13.222;2023-08-31T15:05:05;27.80;47.90
23377;DHT22;14353;46.070;13.222;2023-08-31T15:07:31;27.80;48.00
23377;DHT22;14353;46.070;13.222;2023-08-31T15:09:57;27.80;48.00
23377;DHT22;14353;46.070;13.222;2023-08-31T15:12:22;27.80;48.20
23377;DHT22;14353;46.070;13.222;2023-08-31T15:14:48;27.80;48.00
23377;DHT22;14353;46.070;13.222;2023-08-31T15:17:14;27.80;48.10
23377;DHT22;14353;46.070;13.222;2023-08-31T15:19:39;27.70;48.00
23377;DHT22;14353;46.070;13.222;2023-08-31T15:22:05;27.70;48.00
23377;DHT22;14353;46.070;13.222;2023-08-31T15:24:31;27.70;48.10
23377;DHT22;14353;46.070;13.222;2023-08-31T15:26:58;27.70;48.10